Time;durP1;ratioP1;P1;durP2;ratioP2;P2;SDS_P1;SDS_P2;PMS_P1;PMS_P2;Temp;Humidity;BMP_temperature;BMP_pressure;BME280_temperature;BME280_humidity;BME280_pressure;Samples;Min_cycle;Max_cycle;Signal;HPM_P1;HPM_P2
2023/04/18 04:31:20;;;;;;;50.22;22.13;;;11.10;71.00;;;;;;5502043;23;20052;-88
2023/04/18 04:33:46;;;;;;;57.53;25.58;;;11.00;71.30;;;;;;4935084;29;20066;-88
2023/04/18 04:36:15;;;;;;;59.63;25.35;;;11.00;71.30;;;;;;4920387;29;20028;-88
2023/04/18 04:38:43;;;;;;;69.90;27.52;;;11.10;71.20;;;;;;4905225;29;20060;-89
2023/04/18 04:41:08;;;;;;;60.97;25.77;;;11.00;71.40;;;;;;4918670;29;20503;-88
2023/04/18 04:43:35;;;;;;;58.58;26.48;;;11.00;71.10;;;;;;4922781;29;20121;-88
2023/04/18 04:46:03;;;;;;;56.00;25.33;;;11.00;71.50;;;;;;4921547;29;20046;-88
2023/04/18 04:48:28;;;;;;;56.35;24.02;;;10.90;71.50;;;;;;4937624;29;20406;-89
2023/04/18 04:50:56;;;;;;;58.78;26.55;;;10.90;71.50;;;;;;4937007;29;20024;-89
2023/04/18 04:53:22;;;;;;;55.40;24.23;;;10.90;71.50;;;;;;4934815;29;20024;-88
2023/04/18 04:55:48;;;;;;;58.08;25.27;;;10.80;71.70;;;;;;4919669;29;20136;-89
2023/04/18 04:58:13;;;;;;;62.97;27.98;;;10.80;71.70;;;;;;4902562;29;20059;-88
2023/04/18 05:00:39;;;;;;;67.15;27.73;;;10.80;71.30;;;;;;4904742;29;20027;-89
2023/04/18 05:03:05;;;;;;;59.33;24.73;;;10.90;70.90;;;;;;4931993;29;20031;-89
2023/04/18 05:05:31;;;;;;;63.67;28.80;;;10.80;71.30;;;;;;4951125;29;20682;-88
2023/04/18 05:07:57;;;;;;;65.93;27.60;;;10.80;71.50;;;;;;4955209;29;20090;-87
2023/04/18 05:10:22;;;;;;;61.33;25.63;;;10.80;71.50;;;;;;4937347;29;20089;-87
2023/04/18 05:12:48;;;;;;;55.28;24.63;;;10.80;71.20;;;;;;4939273;29;20114;-88
2023/04/18 05:15:15;;;;;;;63.63;28.60;;;10.80;71.30;;;;;;4936509;29;20032;-89
2023/04/18 05:17:41;;;;;;;61.08;25.02;;;10.80;71.70;;;;;;4938190;29;20028;-89
2023/04/18 05:20:07;;;;;;;64.57;26.13;;;10.70;71.80;;;;;;4923737;29;20042;-88
2023/04/18 05:22:33;;;;;;;55.83;26.40;;;10.70;71.70;;;;;;4941026;29;20513;-80
2023/04/18 05:24:58;;;;;;;63.28;26.05;;;10.80;71.90;;;;;;4938329;29;20122;-81
2023/04/18 05:27:25;;;;;;;62.38;25.05;;;10.80;72.30;;;;;;4923178;29;20035;-80
2023/04/18 05:29:51;;;;;;;57.80;25.00;;;10.80;71.90;;;;;;4930621;29;20032;-80
2023/04/18 05:32:17;;;;;;;58.30;25.85;;;10.80;71.70;;;;;;4942206;29;20498;-80
2023/04/18 05:34:43;;;;;;;66.20;26.48;;;10.80;72.10;;;;;;4938801;29;20055;-80
2023/04/18 05:37:08;;;;;;;68.55;27.13;;;10.90;71.40;;;;;;4951860;29;20027;-85
2023/04/18 05:39:34;;;;;;;63.88;26.50;;;10.90;71.30;;;;;;4961167;29;20027;-84
2023/04/18 05:42:01;;;;;;;62.15;25.23;;;10.80;71.20;;;;;;4961332;29;20031;-84
2023/04/18 05:44:27;;;;;;;65.53;26.83;;;10.90;71.80;;;;;;4924503;29;20420;-84
2023/04/18 05:46:53;;;;;;;60.95;25.20;;;10.90;71.50;;;;;;4922839;29;20076;-84
2023/04/18 05:49:19;;;;;;;55.58;25.52;;;10.90;71.90;;;;;;4923256;29;20031;-84
2023/04/18 05:51:45;;;;;;;57.20;24.15;;;10.90;71.40;;;;;;4932675;29;20059;-84
2023/04/18 05:54:11;;;;;;;62.08;25.63;;;11.00;71.40;;;;;;4922741;29;20035;-84
2023/04/18 05:56:37;;;;;;;62.83;27.65;;;11.10;71.60;;;;;;4905725;29;20032;-83
2023/04/18 05:59:03;;;;;;;63.75;29.10;;;11.10;71.00;;;;;;4934159;29;20066;-83
2023/04/18 06:01:28;;;;;;;58.70;24.80;;;11.10;71.20;;;;;;4937361;29;20537;-84
2023/04/18 06:03:54;;;;;;;63.42;28.17;;;11.20;71.10;;;;;;4941351;29;20036;-80
2023/04/18 06:06:20;;;;;;;67.78;28.27;;;11.20;70.50;;;;;;4937541;29;20062;-79
2023/04/18 06:08:46;;;;;;;66.22;28.70;;;11.20;70.70;;;;;;4929035;29;20032;-87
2023/04/18 06:11:14;;;;;;;70.22;28.20;;;11.20;70.70;;;;;;4927331;29;20032;-86
2023/04/18 06:17:14;;;;;;;;;;;;;;;;;;;;;
2023/04/18 06:19:43;;;;;;;55.13;25.92;;;11.50;70.30;;;;;;4941947;29;20046;-89
2023/04/18 06:22:08;;;;;;;61.50;26.70;;;11.50;70.30;;;;;;4923882;29;20110;-85
2023/04/18 06:24:34;;;;;;;54.85;25.85;;;11.60;70.00;;;;;;4921812;29;20075;-83
2023/04/18 06:27:00;;;;;;;64.70;26.65;;;11.60;70.00;;;;;;4922039;29;20064;-89
2023/04/18 06:29:29;;;;;;;59.67;26.50;;;11.70;69.40;;;;;;4922588;29;20112;-88
2023/04/18 06:31:57;;;;;;;59.60;28.05;;;11.70;69.70;;;;;;4922162;29;20056;-83
2023/04/18 06:34:22;;;;;;;57.05;27.25;;;11.70;69.70;;;;;;4937863;29;20023;-87
2023/04/18 06:36:48;;;;;;;57.88;24.88;;;11.70;70.00;;;;;;4905526;29;20452;-83
2023/04/18 06:39:16;;;;;;;63.25;26.92;;;11.70;70.00;;;;;;4920334;29;20040;-85
2023/04/18 06:41:45;;;;;;;62.05;27.50;;;11.70;69.70;;;;;;4931032;29;20546;-85
2023/04/18 06:44:10;;;;;;;59.30;26.23;;;11.80;69.60;;;;;;4937106;29;20028;-87
2023/04/18 06:50:12;;;;;;;61.63;27.52;;;11.90;69.80;;;;;;4879598;29;20044;-88
2023/04/18 07:00:07;;;;;;;;;;;;;;;;;;;;;
2023/04/18 07:02:55;;;;;;;;;;;;;;;;;;;;;
2023/04/18 07:05:54;;;;;;;61.05;28.42;;;12.30;68.30;;;;;;4855321;29;20068;-88
2023/04/18 07:11:51;;;;;;;60.03;28.90;;;12.50;68.20;;;;;;4880482;29;20061;-84
2023/04/18 07:14:34;;;;;;;56.40;26.95;;;12.70;67.70;;;;;;4880943;29;20033;-88
2023/04/18 07:17:00;;;;;;;59.75;27.77;;;12.80;66.90;;;;;;4862944;29;20453;-83
2023/04/18 07:19:26;;;;;;;59.72;28.52;;;12.90;67.00;;;;;;4882762;29;20047;-78
2023/04/18 07:21:52;;;;;;;60.85;28.02;;;12.90;67.00;;;;;;4937409;29;20032;-81
2023/04/18 07:36:10;;;;;;;;;;;;;;;;;;;;;
2023/04/18 07:39:35;;;;;;;55.80;26.95;;;14.50;61.90;;;;;;4732926;30;20059;-88
2023/04/18 08:13:11;;;;;;;;;;;;;;;;;;;;;
2023/04/18 08:15:41;;;;;;;33.83;24.98;;;27.10;34.30;;;;;;4958403;29;20119;-88
2023/04/18 08:18:07;;;;;;;;;;;27.50;33.20;;;;;;4959029;29;20027;-88
2023/04/18 08:20:39;;;;;;;35.15;24.98;;;28.00;32.10;;;;;;4941101;29;19934;-88
2023/04/18 08:23:08;;;;;;;32.88;24.73;;;28.50;31.90;;;;;;4923959;29;20406;-88
2023/04/18 08:25:35;;;;;;;33.65;24.63;;;28.50;30.40;;;;;;4939370;29;20103;-88
2023/04/18 08:28:01;;;;;;;34.50;27.10;;;28.60;29.70;;;;;;4938881;29;20073;-88
2023/04/18 08:30:27;;;;;;;31.52;23.83;;;28.10;30.20;;;;;;4937892;29;20039;-88
2023/04/18 08:32:55;;;;;;;37.03;25.95;;;28.40;29.90;;;;;;4941995;29;20038;-88
2023/04/18 08:35:21;;;;;;;37.90;25.30;;;28.10;29.40;;;;;;4940924;29;20397;-88
2023/04/18 08:37:47;;;;;;;33.85;25.73;;;28.10;30.20;;;;;;4941648;29;20123;-87
2023/04/18 08:40:12;;;;;;;31.00;23.65;;;28.30;29.30;;;;;;4937900;29;20032;-87
2023/04/18 08:42:42;;;;;;;35.03;23.85;;;28.30;29.80;;;;;;4922136;29;20039;-87
2023/04/18 08:45:14;;;;;;;;;;;28.20;29.50;;;;;;4938164;29;20038;-86
2023/04/18 08:48:01;;;;;;;;;;;;;;;;;;;;;
2023/04/18 08:50:27;;;;;;;28.83;21.85;;;28.60;29.50;;;;;;4938814;29;20034;-85
2023/04/18 08:52:54;;;;;;;33.00;23.33;;;28.90;28.80;;;;;;4938528;29;20066;-86
2023/04/18 08:56:01;;;;;;;29.85;22.42;;;29.30;28.60;;;;;;4956672;29;20074;-87
2023/04/18 08:58:32;;;;;;;30.73;23.48;;;29.30;28.10;;;;;;4936938;29;20066;-84
2023/04/18 09:00:58;;;;;;;29.38;23.10;;;29.30;27.50;;;;;;4949291;29;20039;-86
2023/04/18 09:03:38;;;;;;;30.33;23.17;;;29.20;28.70;;;;;;4936595;29;20036;-85
2023/04/18 09:06:17;;;;;;;30.52;22.70;;;28.80;28.00;;;;;;4958381;28;20023;-86
2023/04/18 09:08:55;;;;;;;28.80;21.90;;;28.30;28.40;;;;;;4936996;29;20135;-86
2023/04/18 09:11:29;;;;;;;28.20;22.33;;;28.60;29.70;;;;;;4940573;29;20032;-86
2023/04/18 09:13:58;;;;;;;28.98;21.42;;;28.80;29.40;;;;;;4938215;29;20046;-89
2023/04/18 09:16:49;;;;;;;29.60;21.52;;;29.40;29.20;;;;;;4955233;28;20030;-85
2023/04/18 09:22:51;;;;;;;30.45;21.58;;;29.80;28.10;;;;;;4896296;29;20032;-79
2023/04/18 09:25:36;;;;;;;30.27;21.45;;;29.80;27.80;;;;;;4938618;29;20032;-79
2023/04/18 09:28:21;;;;;;;27.50;20.80;;;29.80;27.90;;;;;;4936840;28;20035;-80
2023/04/18 09:30:48;;;;;;;28.25;20.70;;;30.00;27.40;;;;;;4937094;29;20038;-80
2023/04/18 09:33:13;;;;;;;28.90;22.48;;;30.30;27.50;;;;;;4945263;29;20585;-79
2023/04/18 09:35:39;;;;;;;28.50;21.88;;;30.40;26.80;;;;;;4957318;29;20023;-80
2023/04/18 09:38:06;;;;;;;29.98;22.23;;;30.40;27.00;;;;;;4942423;28;20850;-82
2023/04/18 09:40:32;;;;;;;25.38;20.17;;;30.40;27.00;;;;;;4938530;29;20386;-81
2023/04/18 09:42:58;;;;;;;25.77;20.20;;;30.30;26.70;;;;;;4937077;29;20028;-82
2023/04/18 09:45:24;;;;;;;26.42;21.35;;;30.30;26.10;;;;;;4938374;29;20040;-81
2023/04/18 09:47:51;;;;;;;29.33;21.38;;;29.40;26.30;;;;;;4937953;28;20571;-81
2023/04/18 09:50:19;;;;;;;27.48;20.85;;;29.00;27.60;;;;;;4938298;29;20088;-81
2023/04/18 09:52:45;;;;;;;28.35;20.25;;;28.90;27.60;;;;;;4937021;29;20055;-81
2023/04/18 09:55:17;;;;;;;29.33;21.77;;;28.50;28.50;;;;;;4936126;29;20032;-82
2023/04/18 09:57:45;;;;;;;29.20;21.10;;;28.70;28.40;;;;;;4938154;29;20028;-82
2023/04/18 10:00:23;;;;;;;30.70;21.02;;;28.80;28.40;;;;;;4936878;29;20098;-81
2023/04/18 10:02:55;;;;;;;26.25;18.85;;;29.00;27.90;;;;;;4937992;28;20499;-82
2023/04/18 10:05:25;;;;;;;24.00;18.90;;;28.90;27.50;;;;;;4950250;29;20394;-82
2023/04/18 10:07:52;;;;;;;24.70;18.98;;;28.90;27.90;;;;;;4935837;29;20032;-82
2023/04/18 10:10:18;;;;;;;29.80;22.25;;;28.80;28.30;;;;;;4940007;28;20039;-82
2023/04/18 10:12:46;;;;;;;24.92;20.13;;;28.50;27.80;;;;;;4957197;28;20051;-82
2023/04/18 10:15:14;;;;;;;25.52;19.35;;;28.10;29.40;;;;;;4943568;28;20475;-82
2023/04/18 10:17:52;;;;;;;26.35;18.90;;;27.80;29.70;;;;;;4927847;29;20024;-82
2023/04/18 10:20:19;;;;;;;25.20;17.75;;;27.80;30.50;;;;;;4924376;29;20414;-81
2023/04/18 10:22:46;;;;;;;27.25;19.63;;;27.60;30.50;;;;;;4924560;29;20024;-82
2023/04/18 10:25:13;;;;;;;24.70;18.77;;;27.30;30.70;;;;;;4941477;29;20045;-82
2023/04/18 10:27:47;;;;;;;27.52;19.77;;;26.50;31.50;;;;;;4941301;28;20046;-81
2023/04/18 10:30:17;;;;;;;27.70;19.73;;;25.70;32.70;;;;;;4941409;29;20028;-79
2023/04/18 10:32:45;;;;;;;30.67;20.40;;;25.10;33.40;;;;;;4943700;28;20419;-83
2023/04/18 10:35:11;;;;;;;30.45;19.67;;;24.40;34.20;;;;;;4943345;29;20027;-79
2023/04/18 10:37:50;;;;;;;32.10;19.95;;;24.00;34.90;;;;;;4947454;29;20096;-82
2023/04/18 10:40:16;;;;;;;29.17;18.42;;;23.40;35.40;;;;;;4942512;28;20039;-85
2023/04/18 10:42:51;;;;;;;30.70;20.67;;;23.20;35.60;;;;;;4941118;29;20095;-83
2023/04/18 10:45:20;;;;;;;32.40;19.60;;;22.90;36.00;;;;;;4941263;29;20028;-81
2023/04/18 10:47:45;;;;;;;29.95;18.02;;;22.70;36.80;;;;;;4939923;28;20439;-81
2023/04/18 10:50:11;;;;;;;29.75;18.27;;;22.50;37.00;;;;;;4939829;29;20123;-83
2023/04/18 10:52:37;;;;;;;25.88;17.50;;;22.30;38.00;;;;;;4939929;29;20020;-81
2023/04/18 10:55:23;;;;;;;32.05;18.08;;;22.00;38.00;;;;;;4941140;29;20030;-81
2023/04/18 10:57:50;;;;;;;29.08;17.00;;;21.60;39.20;;;;;;4941900;29;20036;-82
2023/04/18 11:00:19;;;;;;;31.23;17.27;;;21.40;39.10;;;;;;4942698;29;20031;-77
2023/04/18 11:02:55;;;;;;;29.70;17.70;;;21.50;38.90;;;;;;4939563;28;20123;-82
2023/04/18 11:05:29;;;;;;;27.88;16.88;;;21.40;39.80;;;;;;4951326;29;20167;-79
2023/04/18 11:07:55;;;;;;;27.95;17.25;;;21.60;39.60;;;;;;4956627;29;20031;-81
2023/04/18 11:10:25;;;;;;;28.05;17.65;;;21.70;39.50;;;;;;4948960;28;20104;-80
2023/04/18 11:12:52;;;;;;;28.90;18.27;;;21.80;39.30;;;;;;4942147;29;20053;-84
2023/04/18 11:15:20;;;;;;;30.10;18.85;;;21.70;39.00;;;;;;4960009;29;20051;-83
2023/04/18 11:17:56;;;;;;;27.52;17.02;;;21.40;38.60;;;;;;4957250;28;20053;-83
2023/04/18 11:20:22;;;;;;;30.23;18.17;;;21.30;39.70;;;;;;4958988;29;20486;-84
2023/04/18 11:22:56;;;;;;;26.73;16.98;;;21.30;40.40;;;;;;4960080;29;20046;-85
2023/04/18 11:25:35;;;;;;;28.70;18.13;;;21.30;40.90;;;;;;4959112;28;20027;-80
2023/04/18 11:28:02;;;;;;;30.13;18.48;;;21.30;40.30;;;;;;4941847;29;20038;-78
2023/04/18 11:30:36;;;;;;;29.42;18.65;;;21.10;39.90;;;;;;4959575;29;20114;-84
2023/04/18 11:33:12;;;;;;;28.90;17.70;;;21.10;40.30;;;;;;4950662;28;20497;-82
2023/04/18 11:35:45;;;;;;;29.23;18.98;;;21.20;40.50;;;;;;4959779;29;20078;-84
2023/04/18 11:38:13;;;;;;;28.90;17.65;;;21.10;39.50;;;;;;4953087;28;20043;-82
2023/04/18 11:40:45;;;;;;;25.70;17.17;;;20.90;39.50;;;;;;4943004;29;20030;-81
2023/04/18 11:43:19;;;;;;;28.02;17.02;;;20.80;39.90;;;;;;4951469;28;20043;-86
2023/04/18 11:45:51;;;;;;;25.58;16.30;;;20.70;40.70;;;;;;4925430;29;20038;-91
2023/04/18 11:48:19;;;;;;;30.80;17.02;;;20.80;39.80;;;;;;4953534;28;20504;-89
2023/04/18 11:50:45;;;;;;;26.48;18.05;;;20.80;39.80;;;;;;4953953;29;20026;-88
2023/04/18 11:53:10;;;;;;;24.23;16.10;;;20.80;39.40;;;;;;4955539;28;20079;-90
2023/04/18 11:55:36;;;;;;;29.27;17.25;;;20.80;39.70;;;;;;4942304;29;20049;-89
2023/04/18 11:58:05;;;;;;;29.80;17.27;;;20.70;39.60;;;;;;4962024;28;20062;-88
2023/04/18 12:00:31;;;;;;;24.67;15.65;;;20.80;39.90;;;;;;4942011;29;20028;-90
2023/04/18 12:02:58;;;;;;;28.60;16.35;;;20.80;39.10;;;;;;4958434;29;20031;-90
2023/04/18 12:05:30;;;;;;;24.15;15.65;;;20.60;38.40;;;;;;4938828;29;20106;-90
2023/04/18 12:08:10;;;;;;;27.05;15.82;;;20.80;38.90;;;;;;4941525;29;20035;-89
2023/04/18 12:10:37;;;;;;;28.23;17.60;;;20.90;39.00;;;;;;4957212;29;20021;-88
2023/04/18 12:13:07;;;;;;;24.52;15.73;;;21.00;39.40;;;;;;4941093;29;20051;-89
2023/04/18 12:15:38;;;;;;;24.27;15.85;;;21.00;38.60;;;;;;4956917;28;20022;-90
2023/04/18 12:18:06;;;;;;;25.85;17.00;;;20.80;38.70;;;;;;4958208;29;20035;-86
2023/04/18 12:20:53;;;;;;;28.77;17.10;;;20.70;39.20;;;;;;4953845;28;20055;-90
2023/04/18 12:23:34;;;;;;;26.40;17.42;;;20.70;40.70;;;;;;4956974;29;20038;-87
2023/04/18 12:26:13;;;;;;;24.65;15.68;;;20.80;39.80;;;;;;4957383;29;20062;-89
2023/04/18 12:28:44;;;;;;;23.60;14.63;;;21.00;38.90;;;;;;4940410;28;20031;-87
2023/04/18 12:31:09;;;;;;;30.60;18.67;;;21.30;39.20;;;;;;4937336;29;20053;-81
2023/04/18 12:33:35;;;;;;;29.40;19.65;;;21.40;39.00;;;;;;4931615;29;20034;-89
2023/04/18 12:36:01;;;;;;;27.27;17.33;;;21.20;39.00;;;;;;4952009;28;20068;-89
2023/04/18 12:38:27;;;;;;;27.45;17.30;;;20.90;39.30;;;;;;4933995;29;20031;-83
2023/04/18 12:40:53;;;;;;;28.67;16.77;;;20.90;39.50;;;;;;4938766;29;20042;-79
2023/04/18 12:43:18;;;;;;;28.48;16.45;;;21.10;39.60;;;;;;4954828;29;20067;-80
2023/04/18 12:45:45;;;;;;;29.17;18.13;;;21.20;40.10;;;;;;4952377;28;20422;-78
2023/04/18 12:48:11;;;;;;;27.88;17.55;;;21.00;39.10;;;;;;4929279;29;20031;-77
2023/04/18 12:50:37;;;;;;;31.30;17.48;;;20.90;39.70;;;;;;4921773;29;20553;-79
2023/04/18 12:53:03;;;;;;;27.10;17.45;;;21.00;39.90;;;;;;4938525;29;20491;-79
2023/04/18 12:55:29;;;;;;;26.05;16.38;;;20.80;38.90;;;;;;4938433;28;20784;-79
2023/04/18 12:57:56;;;;;;;26.58;17.02;;;20.60;38.80;;;;;;4939890;29;20023;-78
2023/04/18 13:00:24;;;;;;;25.98;16.63;;;20.50;39.00;;;;;;4940092;29;20027;-79
2023/04/18 13:02:51;;;;;;;29.13;16.25;;;20.50;38.80;;;;;;4933422;29;20127;-80
2023/04/18 13:05:18;;;;;;;28.02;17.20;;;20.70;39.30;;;;;;4936896;29;20035;-78
2023/04/18 13:07:46;;;;;;;28.85;16.50;;;20.50;40.00;;;;;;4937087;29;20035;-78
2023/04/18 13:10:23;;;;;;;26.98;15.68;;;20.50;39.10;;;;;;4944593;29;20483;-78
2023/04/18 13:12:50;;;;;;;31.02;16.48;;;20.70;39.60;;;;;;4936276;29;20051;-78
2023/04/18 13:15:16;;;;;;;23.05;16.23;;;21.10;39.30;;;;;;4929573;29;20573;-79
2023/04/18 13:17:43;;;;;;;28.48;17.90;;;21.00;39.30;;;;;;4957099;29;20031;-79
2023/04/18 13:20:11;;;;;;;33.53;18.73;;;20.80;39.40;;;;;;4936568;29;20043;-78
2023/04/18 13:22:37;;;;;;;29.67;18.00;;;20.40;40.80;;;;;;4936042;29;20483;-79
2023/04/18 13:25:03;;;;;;;30.67;17.42;;;20.00;41.50;;;;;;4949130;29;20031;-79
2023/04/18 13:27:29;;;;;;;30.75;17.80;;;20.10;42.30;;;;;;4956819;29;20430;-75
2023/04/18 13:29:56;;;;;;;32.92;17.85;;;20.30;42.00;;;;;;4946880;28;20028;-79
2023/04/18 13:32:22;;;;;;;26.73;16.48;;;20.70;40.90;;;;;;4938337;29;20041;-78
2023/04/18 13:34:48;;;;;;;30.52;17.17;;;21.00;40.50;;;;;;4949196;28;20035;-79
2023/04/18 13:37:14;;;;;;;25.10;15.88;;;21.10;39.60;;;;;;4936283;29;20031;-78
2023/04/18 13:39:40;;;;;;;25.85;16.88;;;21.00;40.10;;;;;;4942205;29;20387;-78
2023/04/18 13:42:06;;;;;;;26.77;15.13;;;20.60;40.00;;;;;;4938244;29;20035;-78
2023/04/18 13:44:36;;;;;;;25.90;16.35;;;20.20;39.30;;;;;;4928151;29;20047;-78
2023/04/18 13:47:06;;;;;;;;;;;19.80;40.20;;;;;;4937249;28;20031;-79
2023/04/18 13:49:32;;;;;;;29.27;15.85;;;19.80;40.70;;;;;;4939898;29;20046;-79
2023/04/18 13:51:58;;;;;;;26.58;16.38;;;20.00;41.50;;;;;;4924567;29;20110;-78
2023/04/18 13:54:28;;;;;;;30.48;15.70;;;20.30;41.30;;;;;;4924751;29;20056;-79
2023/04/18 13:56:59;;;;;;;28.90;15.68;;;20.50;41.30;;;;;;4923152;29;20035;-79
2023/04/18 13:59:25;;;;;;;23.95;14.75;;;20.70;40.30;;;;;;4940393;29;20031;-78
2023/04/18 14:01:52;;;;;;;29.02;16.35;;;20.70;39.70;;;;;;4940377;28;20071;-78
2023/04/18 14:04:19;;;;;;;23.88;13.98;;;20.70;40.00;;;;;;4945236;29;20034;-79
2023/04/18 14:06:45;;;;;;;20.95;13.95;;;20.50;40.50;;;;;;4946252;29;20059;-79
2023/04/18 14:09:11;;;;;;;22.95;14.63;;;20.50;40.10;;;;;;4943307;28;20028;-79
2023/04/18 14:11:36;;;;;;;23.90;13.40;;;20.40;40.40;;;;;;4939271;29;20046;-79
2023/04/18 14:14:02;;;;;;;28.33;16.00;;;20.30;41.00;;;;;;4946690;28;20055;-79
2023/04/18 14:16:30;;;;;;;20.70;13.70;;;20.30;41.40;;;;;;4931309;29;20036;-80
2023/04/18 14:18:56;;;;;;;23.52;13.88;;;20.20;41.90;;;;;;4925194;29;20043;-80
2023/04/18 14:21:22;;;;;;;21.77;13.48;;;20.10;42.60;;;;;;4941365;29;20036;-77
2023/04/18 14:23:48;;;;;;;23.92;14.57;;;19.90;43.10;;;;;;4941000;28;20064;-85
2023/04/18 14:26:13;;;;;;;23.10;14.10;;;19.80;43.30;;;;;;4938094;29;20546;-79
2023/04/18 14:28:39;;;;;;;27.83;14.95;;;19.60;43.60;;;;;;4924240;29;20075;-78
2023/04/18 14:31:05;;;;;;;21.48;13.70;;;19.40;44.10;;;;;;4941460;28;20451;-78
2023/04/18 14:33:34;;;;;;;23.92;14.40;;;19.30;44.30;;;;;;4949856;29;20020;-77
2023/04/18 14:36:01;;;;;;;22.70;14.07;;;19.20;44.70;;;;;;4938824;29;20031;-80
2023/04/18 14:38:27;;;;;;;25.92;13.50;;;19.10;45.30;;;;;;4926088;29;20039;-79
2023/04/18 14:40:54;;;;;;;27.48;14.70;;;19.10;45.50;;;;;;4920802;29;20115;-79
2023/04/18 14:43:20;;;;;;;25.20;15.48;;;19.10;45.00;;;;;;4924217;29;20561;-79
2023/04/18 14:45:45;;;;;;;25.58;14.02;;;19.30;45.00;;;;;;4937448;29;20085;-79
2023/04/18 14:48:11;;;;;;;24.27;13.98;;;19.70;44.60;;;;;;4940618;29;20031;-79
2023/04/18 14:50:37;;;;;;;24.20;13.45;;;20.10;44.80;;;;;;4931005;29;20513;-79
2023/04/18 14:53:04;;;;;;;25.98;13.88;;;20.30;44.40;;;;;;4923796;29;20467;-80
2023/04/18 14:55:30;;;;;;;26.88;14.38;;;20.30;44.20;;;;;;4923255;29;20031;-79
2023/04/18 14:57:55;;;;;;;21.30;13.73;;;20.10;45.30;;;;;;4940386;28;20038;-79
2023/04/18 15:00:21;;;;;;;24.08;13.50;;;19.70;45.60;;;;;;4937993;29;20483;-79
2023/04/18 15:02:47;;;;;;;21.92;14.23;;;19.30;45.60;;;;;;4943326;29;20075;-79
2023/04/18 15:05:12;;;;;;;22.55;14.88;;;19.00;46.40;;;;;;4952910;28;20035;-79
2023/04/18 15:07:39;;;;;;;25.23;14.73;;;18.90;46.50;;;;;;4940396;29;20087;-78
2023/04/18 15:10:06;;;;;;;21.23;14.27;;;18.90;46.40;;;;;;4941926;29;20069;-78
2023/04/18 15:12:31;;;;;;;23.60;14.05;;;19.00;46.20;;;;;;4938070;29;20043;-80
2023/04/18 15:14:58;;;;;;;25.92;14.27;;;19.00;45.90;;;;;;4938907;29;20031;-80
2023/04/18 15:17:24;;;;;;;21.02;13.07;;;19.10;45.80;;;;;;4939378;28;20035;-78
2023/04/18 15:19:50;;;;;;;20.02;12.43;;;19.10;45.80;;;;;;4958993;29;20571;-78
2023/04/18 15:22:16;;;;;;;22.65;13.45;;;19.30;45.60;;;;;;4933272;29;20406;-79
2023/04/18 15:24:41;;;;;;;22.40;13.57;;;19.30;45.50;;;;;;4937446;29;20869;-79
2023/04/18 15:27:07;;;;;;;18.67;11.98;;;19.30;45.10;;;;;;4945576;29;20047;-79
2023/04/18 15:29:33;;;;;;;26.17;12.70;;;19.40;45.20;;;;;;4938231;29;20388;-78
2023/04/18 15:31:58;;;;;;;26.02;13.50;;;19.30;45.10;;;;;;4937577;29;20483;-79
2023/04/18 15:34:25;;;;;;;19.73;12.25;;;19.30;44.60;;;;;;4934879;29;20074;-79
2023/04/18 15:36:50;;;;;;;20.20;11.98;;;19.40;44.30;;;;;;4921887;28;20028;-79
2023/04/18 15:39:41;;;;;;;21.50;11.68;;;19.50;44.00;;;;;;4940457;29;20907;-85
2023/04/18 15:42:06;;;;;;;21.05;12.25;;;19.80;43.90;;;;;;4946332;29;20045;-79
2023/04/18 15:44:32;;;;;;;19.02;12.18;;;20.00;43.70;;;;;;4952417;29;20106;-79
2023/04/18 15:47:00;;;;;;;22.00;10.77;;;20.10;42.90;;;;;;4953716;28;20040;-78
2023/04/18 15:49:25;;;;;;;19.20;11.05;;;20.20;43.30;;;;;;4939351;29;20047;-78
2023/04/18 15:51:51;;;;;;;14.75;9.93;;;20.30;43.20;;;;;;4938412;29;20036;-78
2023/04/18 15:54:17;;;;;;;18.52;11.38;;;20.10;42.80;;;;;;4937717;28;20114;-80
2023/04/18 15:56:43;;;;;;;20.88;11.90;;;20.00;43.40;;;;;;4949556;29;20031;-78
2023/04/18 15:59:09;;;;;;;19.17;11.40;;;19.70;43.30;;;;;;4922314;29;20179;-79
2023/04/18 16:01:35;;;;;;;18.67;11.02;;;19.40;43.70;;;;;;4925394;29;20035;-79
2023/04/18 16:04:01;;;;;;;16.48;10.80;;;19.20;44.10;;;;;;4947386;29;20023;-78
2023/04/18 16:06:28;;;;;;;18.65;11.43;;;19.20;44.50;;;;;;4952496;29;20031;-79
2023/04/18 16:08:54;;;;;;;19.30;11.95;;;19.10;44.80;;;;;;4941374;29;20063;-79
2023/04/18 16:11:26;;;;;;;19.30;11.73;;;19.20;44.30;;;;;;4930664;29;20027;-79
2023/04/18 16:13:53;;;;;;;20.08;10.70;;;19.30;44.00;;;;;;4932514;29;20057;-79
2023/04/18 16:16:19;;;;;;;15.65;10.25;;;19.30;44.40;;;;;;4953741;29;20028;-80
2023/04/18 16:18:44;;;;;;;17.25;10.00;;;19.40;44.50;;;;;;4955017;28;20414;-79
2023/04/18 16:21:16;;;;;;;16.38;10.63;;;19.60;44.20;;;;;;4943063;29;20031;-80
2023/04/18 16:23:42;;;;;;;18.85;10.93;;;19.60;43.40;;;;;;4940962;29;20039;-80
2023/04/18 16:26:08;;;;;;;16.00;9.45;;;19.70;43.50;;;;;;4948273;28;20031;-80
2023/04/18 16:28:36;;;;;;;16.65;11.07;;;19.70;43.40;;;;;;4944323;29;20034;-80
2023/04/18 16:31:04;;;;;;;16.48;10.73;;;19.70;43.60;;;;;;4940430;28;20035;-80
2023/04/18 16:33:29;;;;;;;19.77;10.75;;;19.60;43.50;;;;;;4940545;29;20031;-80
2023/04/18 16:36:01;;;;;;;16.90;10.38;;;19.50;43.70;;;;;;4949090;28;20031;-79
2023/04/18 16:38:27;;;;;;;15.57;8.38;;;19.30;44.10;;;;;;4938447;29;20086;-80
2023/04/18 16:40:55;;;;;;;16.55;9.70;;;18.90;44.20;;;;;;4957570;29;20483;-80
2023/04/18 16:43:22;;;;;;;17.40;9.75;;;18.70;44.90;;;;;;4930773;29;20039;-79
2023/04/18 16:45:48;;;;;;;16.17;9.20;;;18.60;45.90;;;;;;4943802;29;20418;-79
2023/04/18 16:48:13;;;;;;;17.50;10.25;;;18.40;45.80;;;;;;4922451;29;20111;-79
2023/04/18 16:50:39;;;;;;;18.65;10.52;;;18.30;47.00;;;;;;4937888;29;20051;-80
2023/04/18 16:53:06;;;;;;;19.90;11.23;;;18.30;47.30;;;;;;4926681;29;20077;-80
2023/04/18 16:55:31;;;;;;;21.83;13.00;;;18.20;47.80;;;;;;4919378;29;20027;-80
2023/04/18 16:57:57;;;;;;;18.65;11.38;;;18.10;48.40;;;;;;4952249;29;20065;-81
2023/04/18 17:00:23;;;;;;;20.85;11.82;;;18.10;48.50;;;;;;4958880;28;20038;-80
2023/04/18 17:02:49;;;;;;;22.45;12.77;;;18.10;49.00;;;;;;4961046;28;20039;-80
2023/04/18 17:05:15;;;;;;;22.80;11.52;;;18.10;49.80;;;;;;4940070;29;20054;-81
2023/04/18 17:07:40;;;;;;;19.02;11.65;;;18.10;50.20;;;;;;4927728;29;20032;-79
2023/04/18 17:10:07;;;;;;;21.67;12.57;;;18.20;50.80;;;;;;4932991;28;20035;-78
2023/04/18 17:12:32;;;;;;;26.17;13.45;;;18.20;51.30;;;;;;4951684;29;20043;-78
2023/04/18 17:14:58;;;;;;;22.95;13.75;;;18.20;51.50;;;;;;4939942;29;20059;-78
2023/04/18 17:17:23;;;;;;;29.50;15.73;;;18.10;52.00;;;;;;4939615;29;20042;-78
2023/04/18 17:19:49;;;;;;;23.83;14.63;;;18.10;52.50;;;;;;4937873;29;20821;-78
2023/04/18 17:22:15;;;;;;;26.05;14.02;;;18.10;52.30;;;;;;4944077;29;20028;-76
2023/04/18 17:24:41;;;;;;;32.85;15.40;;;18.00;52.50;;;;;;4936012;29;20123;-75
2023/04/18 17:27:07;;;;;;;21.50;12.35;;;17.70;58.50;;;;;;4923100;29;20031;-77
2023/04/18 17:29:33;;;;;;;17.20;9.95;;;17.00;72.70;;;;;;4956736;29;20368;-84
2023/04/18 17:31:58;;;;;;;24.40;11.00;;;16.30;70.90;;;;;;4955059;28;20485;-80
2023/04/18 17:34:24;;;;;;;21.25;10.90;;;15.60;77.20;;;;;;4946315;29;20035;-80
2023/04/18 17:36:50;;;;;;;19.80;11.57;;;15.30;78.80;;;;;;4939622;29;20034;-78
2023/04/18 17:39:15;;;;;;;17.70;10.85;;;15.00;79.30;;;;;;4946238;29;20039;-77
2023/04/18 17:41:41;;;;;;;20.83;11.23;;;14.90;78.00;;;;;;4957255;29;20094;-82
2023/04/18 17:44:09;;;;;;;22.65;12.13;;;14.90;79.70;;;;;;4940130;29;20046;-80
2023/04/18 17:46:35;;;;;;;25.58;12.07;;;14.90;77.80;;;;;;4957505;29;20027;-83
2023/04/18 17:49:01;;;;;;;19.13;11.05;;;14.90;76.20;;;;;;4939060;28;20031;-79
2023/04/18 17:51:26;;;;;;;23.98;13.07;;;14.90;75.40;;;;;;4952078;29;20486;-83
2023/04/18 17:53:52;;;;;;;26.45;13.52;;;14.80;74.30;;;;;;4957083;29;20023;-79
2023/04/18 17:56:18;;;;;;;21.80;11.88;;;14.90;72.90;;;;;;4950777;28;20030;-83
2023/04/18 17:58:44;;;;;;;24.58;12.13;;;14.90;73.80;;;;;;4921703;29;20032;-79
2023/04/18 18:01:18;;;;;;;27.65;12.80;;;14.90;74.00;;;;;;4938385;29;20055;-84
2023/04/18 18:03:44;;;;;;;24.23;13.50;;;14.90;74.60;;;;;;4923078;29;20500;-83
2023/04/18 18:06:14;;;;;;;25.20;13.18;;;15.00;75.40;;;;;;4936365;29;20032;-84
2023/04/18 18:08:41;;;;;;;25.50;14.23;;;15.10;75.20;;;;;;4937024;29;20102;-83
2023/04/18 18:11:07;;;;;;;24.17;14.15;;;15.10;70.90;;;;;;4946520;29;20354;-81
2023/04/18 18:13:34;;;;;;;27.15;13.98;;;15.10;70.60;;;;;;4948027;29;20046;-83
2023/04/18 18:16:01;;;;;;;26.15;14.93;;;15.10;70.20;;;;;;4920974;29;20031;-82